Time;durP1;ratioP1;P1;durP2;ratioP2;P2;SDS_P1;SDS_P2;PMS_P1;PMS_P2;Temp;Humidity;BMP_temperature;BMP_pressure;BME280_temperature;BME280_humidity;BME280_pressure;Samples;Min_cycle;Max_cycle;Signal;HPM_P1;HPM_P2
2024/01/18 00:03:31;;;;;;;142.53;57.03;;;;;;;-0.78;100.00;97869.92;4960928;56;1143094;-78
2024/01/18 00:08:37;;;;;;;122.83;51.77;;;;;;;-0.83;100.00;97870.72;4782279;58;1142866;-78
2024/01/18 00:13:42;;;;;;;98.77;41.70;;;;;;;-0.83;100.00;97862.94;4833871;57;1143023;-78
2024/01/18 00:18:48;;;;;;;84.77;37.40;;;;;;;-0.86;100.00;97869.64;4792336;59;1141046;-78
2024/01/18 00:23:54;;;;;;;77.73;37.47;;;;;;;-0.90;100.00;97886.36;4934790;56;1140881;-78
2024/01/18 00:29:01;;;;;;;85.90;39.13;;;;;;;-0.93;100.00;97880.95;4954885;57;1140697;-76
2024/01/18 00:34:08;;;;;;;76.25;34.90;;;;;;;-0.94;100.00;97875.88;4948771;58;1140875;-76
2024/01/18 00:39:18;;;;;;;89.85;41.53;;;;;;;-0.98;100.00;97884.81;4854520;57;1140973;-79
2024/01/18 00:44:21;;;;;;;90.20;39.18;;;;;;;-1.02;100.00;97896.34;4944714;57;1140805;-77
2024/01/18 00:49:26;;;;;;;101.90;39.33;;;;;;;-1.00;100.00;97906.97;4950149;57;1141019;-79
2024/01/18 00:54:32;;;;;;;92.07;38.73;;;;;;;-0.98;100.00;97918.06;4952321;56;1142743;-76
2024/01/18 00:59:37;;;;;;;95.67;40.03;;;;;;;-1.02;100.00;97924.88;4932720;57;1141031;-78
2024/01/18 01:04:43;;;;;;;88.23;40.23;;;;;;;-1.07;100.00;97927.82;4937751;57;1141014;-77
2024/01/18 01:09:48;;;;;;;90.73;38.40;;;;;;;-1.09;100.00;97932.28;4916716;57;1140833;-77
2024/01/18 01:14:54;;;;;;;92.27;38.97;;;;;;;-1.14;100.00;97939.09;4940063;55;1141052;-76
2024/01/18 01:20:00;;;;;;;84.43;40.30;;;;;;;-1.14;100.00;97939.09;4954326;57;1141246;-77
2024/01/18 01:25:06;;;;;;;85.53;40.73;;;;;;;-1.10;100.00;97931.45;4972714;57;1141046;-76
2024/01/18 01:30:12;;;;;;;89.07;38.47;;;;;;;-1.08;100.00;97939.12;4859012;58;1140886;-75
2024/01/18 01:35:18;;;;;;;77.50;39.27;;;;;;;-1.07;100.00;97948.57;4809415;58;1141051;-78
2024/01/18 01:40:25;;;;;;;88.03;40.58;;;;;;;-1.07;100.00;97948.57;4896909;57;1140816;-79
2024/01/18 01:45:31;;;;;;;92.00;41.37;;;;;;;-1.08;100.00;97939.12;4959575;56;1140560;-77
2024/01/18 01:50:37;;;;;;;77.90;36.93;;;;;;;-1.08;100.00;97946.45;4875303;57;1140985;-79
2024/01/18 01:55:45;;;;;;;90.62;42.73;;;;;;;-1.13;100.00;97951.59;4852633;58;1140612;-80
2024/01/18 02:00:50;;;;;;;97.53;43.13;;;;;;;-1.21;100.00;97941.74;4968311;57;1140718;-77
2024/01/18 02:05:57;;;;;;;85.50;39.97;;;;;;;-1.23;100.00;97939.75;4936182;56;1140733;-77
2024/01/18 02:11:04;;;;;;;99.07;44.90;;;;;;;-1.23;100.00;97938.92;4962345;57;1141171;-76
2024/01/18 02:16:10;;;;;;;102.10;45.40;;;;;;;-1.26;100.00;97935.25;4943823;57;1140808;-76
2024/01/18 02:21:17;;;;;;;107.07;46.33;;;;;;;-1.28;100.00;97942.30;4953027;57;1142934;-78
2024/01/18 02:26:22;;;;;;;104.20;47.23;;;;;;;-1.33;100.00;97960.77;4803978;58;1142920;-77
2024/01/18 02:31:28;;;;;;;103.07;46.17;;;;;;;-1.36;100.00;97966.63;4809480;58;1142669;-77
2024/01/18 02:36:34;;;;;;;98.10;46.90;;;;;;;-1.40;100.00;97968.63;4879693;57;1142844;-79
2024/01/18 02:41:41;;;;;;;90.67;42.93;;;;;;;-1.40;100.00;97971.69;4822815;57;1141111;-79
2024/01/18 02:46:47;;;;;;;92.07;42.17;;;;;;;-1.43;100.00;97980.50;4844711;57;1141195;-79
2024/01/18 02:51:52;;;;;;;84.90;40.97;;;;;;;-1.46;100.00;97987.19;5044051;56;1140486;-75
2024/01/18 02:56:58;;;;;;;87.20;42.53;;;;;;;-1.46;100.00;97999.68;5014062;56;1140591;-77
2024/01/18 03:02:03;;;;;;;85.77;40.83;;;;;;;-1.40;100.00;97995.02;4921257;57;1141053;-77
2024/01/18 03:07:09;;;;;;;90.57;41.60;;;;;;;-1.37;100.00;98000.80;4954809;57;1225337;-76
2024/01/18 03:12:15;;;;;;;85.03;40.98;;;;;;;-1.37;100.00;98016.34;4858806;58;1140513;-79
2024/01/18 03:17:20;;;;;;;88.43;41.47;;;;;;;-1.38;100.00;98019.08;4908376;58;1140870;-77
2024/01/18 03:22:26;;;;;;;87.77;38.40;;;;;;;-1.35;100.00;98026.61;4839142;58;1140673;-75
2024/01/18 03:27:32;;;;;;;82.33;39.40;;;;;;;-1.36;100.00;98017.17;4748535;59;1140576;-77
2024/01/18 03:32:37;;;;;;;89.20;40.93;;;;;;;-1.37;100.00;98029.78;4712073;59;1140969;-76
2024/01/18 03:37:43;;;;;;;78.17;37.70;;;;;;;-1.40;100.00;98028.25;4753210;58;1140708;-76
2024/01/18 03:42:49;;;;;;;81.50;38.67;;;;;;;-1.46;100.00;98047.64;4830699;57;1140608;-77
2024/01/18 03:47:54;;;;;;;72.53;35.33;;;;;;;-1.49;100.00;98074.22;4877116;58;1140946;-77
2024/01/18 03:53:00;;;;;;;57.30;25.23;;;;;;;-1.49;100.00;98074.22;4934267;57;1141053;-79
2024/01/18 03:58:06;;;;;;;87.83;38.10;;;;;;;-1.50;100.00;98083.76;5044723;55;1141314;-76
2024/01/18 04:03:12;;;;;;;76.57;37.47;;;;;;;-1.56;100.00;98084.19;5057788;55;1141275;-80
2024/01/18 04:08:18;;;;;;;84.60;38.60;;;;;;;-1.57;100.00;98086.42;4947919;56;1141007;-79
2024/01/18 04:13:24;;;;;;;83.35;39.00;;;;;;;-1.58;100.00;98097.72;4931545;58;1140969;-77
2024/01/18 04:18:30;;;;;;;84.93;38.50;;;;;;;-1.62;100.00;98108.38;4883492;58;1140768;-79
2024/01/18 04:23:35;;;;;;;77.63;37.73;;;;;;;-1.62;100.00;98113.09;4852450;57;1141043;-78
2024/01/18 04:28:41;;;;;;;85.12;38.83;;;;;;;-1.60;100.00;98115.59;4851054;57;1141733;-76
2024/01/18 04:33:47;;;;;;;71.03;34.10;;;;;;;-1.64;100.00;98127.08;4865793;58;1141022;-79
2024/01/18 04:38:52;;;;;;;82.50;37.93;;;;;;;-1.66;100.00;98126.34;4907294;57;1141669;-77
2024/01/18 04:43:58;;;;;;;71.73;35.67;;;;;;;-1.72;100.00;98133.25;4947483;57;1140989;-77
2024/01/18 04:49:03;;;;;;;71.60;34.37;;;;;;;-1.72;100.00;98147.04;5037936;56;1140950;-78
2024/01/18 04:54:09;;;;;;;78.27;36.17;;;;;;;-1.72;100.00;98174.25;5012105;55;1140924;-76
2024/01/18 04:59:15;;;;;;;61.85;31.65;;;;;;;-1.68;100.00;98169.70;5036610;56;1140728;-75
2024/01/18 05:04:20;;;;;;;74.72;34.38;;;;;;;-1.67;100.00;98170.03;4990877;56;1140828;-78
2024/01/18 05:09:26;;;;;;;55.53;27.20;;;;;;;-1.68;100.00;98183.95;4937985;57;1141191;-79
2024/01/18 05:14:31;;;;;;;77.03;35.73;;;;;;;-1.71;100.00;98178.96;4950070;56;1141225;-76
2024/01/18 05:19:37;;;;;;;66.63;31.73;;;;;;;-1.82;100.00;98163.63;4929163;56;1140731;-78
2024/01/18 05:24:43;;;;;;;65.57;30.43;;;;;;;-1.72;100.00;98172.95;4926964;57;1140902;-76
2024/01/18 05:29:48;;;;;;;57.60;28.63;;;;;;;-1.75;100.00;98166.66;4920619;56;1141062;-78
2024/01/18 05:34:55;;;;;;;64.42;32.53;;;;;;;-1.83;100.00;98166.31;4955404;57;1141021;-77
2024/01/18 05:40:00;;;;;;;63.35;31.23;;;;;;;-1.82;100.00;98189.53;4903021;57;1140918;-75
2024/01/18 05:45:07;;;;;;;63.23;30.80;;;;;;;-1.82;100.00;98193.89;4924520;56;1141009;-77
2024/01/18 05:50:14;;;;;;;68.30;32.45;;;;;;;-1.85;100.00;98222.14;5101646;56;1140727;-77
2024/01/18 05:55:19;;;;;;;65.78;31.52;;;;;;;-1.93;100.00;98233.44;4971077;56;1140729;-76
2024/01/18 06:00:25;;;;;;;70.27;32.50;;;;;;;-1.98;100.00;98244.55;4918748;56;1140859;-77
2024/01/18 06:05:30;;;;;;;61.80;30.87;;;;;;;-2.02;100.00;98246.15;4936858;56;1141748;-79
2024/01/18 06:10:36;;;;;;;77.43;34.40;;;;;;;-1.95;100.00;98246.11;4900061;57;1141480;-74
2024/01/18 06:15:42;;;;;;;79.07;34.77;;;;;;;-1.85;100.00;98260.17;4938515;56;1140832;-75
2024/01/18 06:20:47;;;;;;;83.37;36.93;;;;;;;-1.79;100.00;98256.70;4995076;56;1141083;-78
2024/01/18 06:25:53;;;;;;;79.13;35.80;;;;;;;-1.85;100.00;98278.30;5032010;56;1140894;-77
2024/01/18 06:30:59;;;;;;;87.23;40.83;;;;;;;-1.82;100.00;98288.45;4970706;56;1140793;-76
2024/01/18 06:36:05;;;;;;;90.73;39.80;;;;;;;-1.91;100.00;98289.87;4966185;56;1141091;-78
2024/01/18 06:41:12;;;;;;;77.20;38.77;;;;;;;-1.88;100.00;98301.34;5035176;56;1141061;-76
2024/01/18 06:46:18;;;;;;;85.20;33.67;;;;;;;-1.98;100.00;98315.77;5094481;56;1140930;-75
2024/01/18 06:51:24;;;;;;;72.85;33.48;;;;;;;-2.09;100.00;98323.38;5006044;56;1140873;-76
2024/01/18 06:56:30;;;;;;;70.47;30.47;;;;;;;-2.22;100.00;98325.05;5020172;56;1140991;-77
2024/01/18 07:01:36;;;;;;;69.77;32.27;;;;;;;-2.34;100.00;98325.34;4995290;56;1140935;-75
2024/01/18 07:06:41;;;;;;;81.07;34.07;;;;;;;-2.39;100.00;98339.47;4949702;56;1141120;-77
2024/01/18 07:11:47;;;;;;;102.67;43.30;;;;;;;-2.41;100.00;98340.02;4952155;56;1140833;-73
2024/01/18 07:16:52;;;;;;;70.30;32.30;;;;;;;-2.43;100.00;98338.81;4980230;56;1143626;-74
2024/01/18 07:21:58;;;;;;;69.47;31.83;;;;;;;-2.44;100.00;98351.39;5023809;56;1140781;-76
2024/01/18 07:27:09;;;;;;;70.30;33.00;;;;;;;-2.48;100.00;98365.45;4994812;56;1140721;-74
2024/01/18 07:32:11;;;;;;;119.77;54.37;;;;;;;-2.53;100.00;98365.72;4986833;56;1140657;-75
2024/01/18 07:37:17;;;;;;;103.33;44.47;;;;;;;-2.49;100.00;98361.20;4976113;56;1143101;-76
2024/01/18 07:42:23;;;;;;;107.13;45.67;;;;;;;-2.44;100.00;98348.00;4980317;56;1142879;-74
2024/01/18 07:47:28;;;;;;;85.05;39.05;;;;;;;-2.39;100.00;98355.84;4930749;57;1142956;-74
2024/01/18 07:52:34;;;;;;;121.93;50.20;;;;;;;-2.27;100.00;98360.27;4941498;57;1140783;-76
2024/01/18 07:57:39;;;;;;;103.15;49.48;;;;;;;-2.15;100.00;98356.14;4935690;57;1142775;-76
2024/01/18 08:02:45;;;;;;;117.75;50.58;;;;;;;-2.11;100.00;98382.20;4903659;57;1142974;-74
2024/01/18 08:07:50;;;;;;;78.47;37.10;;;;;;;-2.17;100.00;98395.06;4964726;56;1143636;-74
2024/01/18 08:12:56;;;;;;;70.63;33.40;;;;;;;-2.22;100.00;98421.69;4937369;56;1140651;-78
2024/01/18 08:18:02;;;;;;;64.90;29.43;;;;;;;-2.24;100.00;98420.11;4906788;56;1141046;-73
2024/01/18 08:23:07;;;;;;;73.03;31.73;;;;;;;-2.25;100.00;98423.62;4963461;56;1140905;-76
2024/01/18 08:28:13;;;;;;;61.73;30.10;;;;;;;-2.27;100.00;98434.06;4944772;57;1141401;-75
2024/01/18 08:33:20;;;;;;;63.23;29.65;;;;;;;-2.25;100.00;98430.09;4948266;57;1140848;-77
2024/01/18 08:38:25;;;;;;;74.22;33.67;;;;;;;-2.24;100.00;98431.75;4939148;57;1140762;-75
2024/01/18 08:43:31;;;;;;;87.37;37.77;;;;;;;-2.19;100.00;98455.63;4958061;57;1141010;-76
2024/01/18 08:48:37;;;;;;;68.83;30.67;;;;;;;-2.15;100.00;98432.53;4907548;56;1141261;-76
2024/01/18 08:53:44;;;;;;;70.97;31.60;;;;;;;-2.02;100.00;98437.34;4939523;57;1140863;-75
2024/01/18 08:58:50;;;;;;;67.57;30.57;;;;;;;-2.04;100.00;98471.56;4941248;57;1140781;-76
2024/01/18 09:03:55;;;;;;;59.83;26.70;;;;;;;-2.08;100.00;98462.76;4884494;57;1140901;-77
2024/01/18 09:09:01;;;;;;;105.70;41.20;;;;;;;-2.06;100.00;98474.70;5014608;56;1140797;-75
2024/01/18 09:14:07;;;;;;;60.93;28.20;;;;;;;-2.03;100.00;98476.28;5098249;56;1142953;-76
2024/01/18 09:19:12;;;;;;;68.73;32.07;;;;;;;-2.00;100.00;98480.83;4993714;56;1140632;-78
2024/01/18 09:24:19;;;;;;;57.03;25.07;;;;;;;-1.91;100.00;98474.25;4954955;57;1140697;-76
2024/01/18 09:29:26;;;;;;;56.37;24.52;;;;;;;-1.83;100.00;98487.11;4962623;57;1141045;-76
2024/01/18 09:34:31;;;;;;;57.30;25.92;;;;;;;-1.79;100.00;98504.14;4959046;57;1140837;-76
2024/01/18 09:39:37;;;;;;;55.90;24.50;;;;;;;-1.78;100.00;98500.63;4948614;57;1140793;-78
2024/01/18 09:44:48;;;;;;;59.25;25.50;;;;;;;-1.78;100.00;98502.39;4930488;57;1141147;-76
2024/01/18 09:49:54;;;;;;;54.97;25.03;;;;;;;-1.77;100.00;98516.55;4963739;57;1140790;-74
2024/01/18 09:55:00;;;;;;;55.00;26.27;;;;;;;-1.73;100.00;98522.39;4945526;57;1141015;-75
2024/01/18 10:00:08;;;;;;;59.85;29.02;;;;;;;-1.72;100.00;98528.41;4913774;56;1140721;-75
2024/01/18 10:05:15;;;;;;;55.67;22.40;;;;;;;-1.68;100.00;98532.48;4876708;57;1140980;-76
2024/01/18 10:10:20;;;;;;;51.87;24.00;;;;;;;-1.60;100.00;98554.88;4951489;57;1140754;-76
2024/01/18 10:15:34;;;;;;;47.13;23.80;;;;;;;-1.62;100.00;98560.16;4989943;57;1141405;-75
2024/01/18 10:20:40;;;;;;;;;;;;;;;-1.61;100.00;98572.19;4937840;56;1140924;-77
2024/01/18 10:25:46;;;;;;;47.77;21.17;;;;;;;-1.51;100.00;98566.81;4977294;57;973909;-77
2024/01/18 10:30:53;;;;;;;58.20;25.70;;;;;;;-1.45;100.00;98571.65;4922390;56;1139143;-77
2024/01/18 10:36:00;;;;;;;54.05;25.55;;;;;;;-1.42;100.00;98560.27;4930175;57;1141006;-77
2024/01/18 10:41:08;;;;;;;53.47;25.20;;;;;;;-1.32;100.00;98579.98;4937632;57;1141078;-75
2024/01/18 10:46:13;;;;;;;51.93;24.07;;;;;;;-1.26;100.00;98580.46;4869222;58;1140717;-76
2024/01/18 10:51:19;;;;;;;68.43;26.67;;;;;;;-1.18;100.00;98563.95;4879197;57;1150179;-78
2024/01/18 10:56:27;;;;;;;61.08;24.02;;;;;;;-1.12;100.00;98558.41;4923522;57;1141152;-75
2024/01/18 11:01:34;;;;;;;46.26;22.28;;;;;;;-1.13;100.00;98558.50;5023723;57;1140804;-78
2024/01/18 11:06:43;;;;;;;51.73;23.63;;;;;;;-1.16;100.00;98572.48;4991913;56;1140961;-78
2024/01/18 11:11:49;;;;;;;50.63;25.93;;;;;;;-1.16;100.00;98563.86;4906846;57;1140812;-78
2024/01/18 11:16:54;;;;;;;44.90;22.53;;;;;;;-1.14;100.00;98569.33;4954828;57;1141791;-77
2024/01/18 11:22:00;;;;;;;54.10;25.47;;;;;;;-1.12;100.00;98579.16;4839122;58;1140985;-77
2024/01/18 11:27:18;;;;;;;59.53;26.60;;;;;;;-1.17;100.00;98591.56;4864254;58;1140919;-78
2024/01/18 11:32:24;;;;;;;50.83;25.65;;;;;;;-1.18;100.00;98587.30;4748063;59;1140841;-78
2024/01/18 11:37:29;;;;;;;48.63;23.37;;;;;;;-1.18;100.00;98600.73;4773260;58;1141247;-77
2024/01/18 11:42:36;;;;;;;54.33;25.87;;;;;;;-1.19;100.00;98608.97;4785545;58;1140988;-76
2024/01/18 11:47:42;;;;;;;51.90;23.73;;;;;;;-1.14;100.00;98616.02;4972702;57;1141037;-78
2024/01/18 11:52:48;;;;;;;55.93;24.13;;;;;;;-1.11;100.00;98613.71;4916528;56;1140969;-77
2024/01/18 11:57:54;;;;;;;61.17;24.97;;;;;;;-1.10;100.00;98624.45;4856359;58;1140949;-77
2024/01/18 12:03:07;;;;;;;50.73;23.00;;;;;;;-1.03;100.00;98628.80;4895744;57;1140790;-76
2024/01/18 12:08:10;;;;;;;53.47;23.17;;;;;;;-1.02;100.00;98626.11;4896950;56;1140770;-71
2024/01/18 12:13:17;;;;;;;54.73;27.10;;;;;;;-0.94;100.00;98635.58;4947082;57;1141021;-71
2024/01/18 12:18:22;;;;;;;53.97;25.07;;;;;;;-0.81;100.00;98633.89;4951667;56;1140967;-75
2024/01/18 12:23:28;;;;;;;49.70;24.63;;;;;;;-0.73;100.00;98629.52;4922679;57;1140969;-73
2024/01/18 12:28:34;;;;;;;44.87;22.47;;;;;;;-0.72;100.00;98635.91;4913510;57;1141093;-73
2024/01/18 12:33:39;;;;;;;45.03;21.37;;;;;;;-0.65;100.00;98643.33;4947029;57;1141182;-73
2024/01/18 12:38:45;;;;;;;48.90;22.20;;;;;;;-0.62;100.00;98640.09;4930285;57;1141165;-70
2024/01/18 12:43:50;;;;;;;48.80;24.33;;;;;;;-0.62;100.00;98627.11;4940914;57;1141555;-76
2024/01/18 12:48:57;;;;;;;42.93;20.30;;;;;;;-0.61;100.00;98633.14;4943010;57;1140746;-80
2024/01/18 12:54:03;;;;;;;46.80;19.60;;;;;;;-0.63;100.00;98644.91;4901518;57;1140700;-78
2024/01/18 12:59:10;;;;;;;40.00;19.20;;;;;;;-0.59;100.00;98651.56;4935696;56;1140888;-79
2024/01/18 13:04:28;;;;;;;48.70;23.67;;;;;;;-0.56;100.00;98651.84;5012342;55;1141453;-79
2024/01/18 13:09:34;;;;;;;43.93;22.27;;;;;;;-0.57;100.00;98644.98;4975185;56;1141691;-79
2024/01/18 13:14:40;;;;;;;45.00;19.92;;;;;;;-0.54;100.00;98643.49;4935715;57;1141162;-81
2024/01/18 13:19:45;;;;;;;44.57;20.63;;;;;;;-0.50;100.00;98631.53;5012020;56;1140666;-78
2024/01/18 13:24:51;;;;;;;33.10;18.20;;;;;;;-0.45;100.00;98633.35;4993741;56;1140637;-76
2024/01/18 13:29:57;;;;;;;41.63;20.07;;;;;;;-0.48;100.00;98644.42;5013217;55;1140728;-80
2024/01/18 13:35:02;;;;;;;55.12;21.77;;;;;;;-0.53;100.00;98664.64;4901946;58;1141226;-77
2024/01/18 13:40:09;;;;;;;66.97;30.13;;;;;;;-0.52;100.00;98676.23;4915087;56;1140760;-78
2024/01/18 13:45:15;;;;;;;57.80;25.83;;;;;;;-0.48;100.00;98680.31;4954878;55;1140590;-80
2024/01/18 13:50:22;;;;;;;86.90;36.80;;;;;;;-0.46;100.00;98693.20;4958937;56;1140702;-78
2024/01/18 13:55:27;;;;;;;62.93;30.40;;;;;;;-0.49;100.00;98706.37;5023985;55;1141692;-80
2024/01/18 14:00:33;;;;;;;77.10;36.15;;;;;;;-0.53;100.00;98697.92;4967615;56;1140705;-78
2024/01/18 14:05:40;;;;;;;64.47;32.35;;;;;;;-0.56;100.00;98716.28;4976428;56;1141337;-79
2024/01/18 14:10:46;;;;;;;54.67;28.00;;;;;;;-0.57;100.00;98716.38;5003413;56;1140883;-80
2024/01/18 14:15:51;;;;;;;66.20;30.80;;;;;;;-0.59;100.00;98727.31;4872184;57;1140717;-76
2024/01/18 14:20:58;;;;;;;54.23;27.10;;;;;;;-0.61;100.00;98738.28;4998434;56;1141020;-78
2024/01/18 14:26:04;;;;;;;61.07;29.60;;;;;;;-0.61;100.00;98740.88;4946131;56;1141277;-77
2024/01/18 14:31:11;;;;;;;63.00;27.60;;;;;;;-0.66;100.00;98741.61;4989132;56;1140771;-79
2024/01/18 14:36:16;;;;;;;49.40;21.70;;;;;;;-0.71;100.00;98755.69;4994699;56;1140683;-78
2024/01/18 14:41:23;;;;;;;45.40;22.22;;;;;;;-0.81;100.00;98766.72;4923769;57;1140773;-77
2024/01/18 14:46:29;;;;;;;56.87;23.20;;;;;;;-0.85;100.00;98769.11;4942779;56;1140822;-76
2024/01/18 14:51:35;;;;;;;58.80;25.88;;;;;;;-0.90;100.00;98786.70;4966506;56;1140990;-78
2024/01/18 14:56:46;;;;;;;73.93;29.03;;;;;;;-0.99;100.00;98795.88;4920800;57;1141257;-77
2024/01/18 15:01:52;;;;;;;69.77;29.50;;;;;;;-1.02;100.00;98801.70;4888683;56;1140707;-77
2024/01/18 15:06:57;;;;;;;66.90;32.90;;;;;;;-1.03;100.00;98817.72;4888219;57;1141125;-78
2024/01/18 15:12:04;;;;;;;86.95;36.38;;;;;;;-1.07;100.00;98823.54;4919319;57;1140792;-76
2024/01/18 15:17:10;;;;;;;81.80;35.17;;;;;;;-1.11;100.00;98827.25;4869059;58;1141107;-78
2024/01/18 15:22:15;;;;;;;81.45;36.30;;;;;;;-1.11;100.00;98848.02;4868166;58;1141296;-77
2024/01/18 15:27:21;;;;;;;89.77;39.37;;;;;;;-1.11;100.00;98846.71;4893793;57;1140635;-73
2024/01/18 15:32:26;;;;;;;77.97;36.03;;;;;;;-1.08;100.00;98864.70;4927844;57;1140962;-75
2024/01/18 15:37:32;;;;;;;267.95;106.12;;;;;;;-1.09;100.00;98876.46;4933722;57;1141439;-75
2024/01/18 15:42:39;;;;;;;226.05;98.62;;;;;;;-1.09;100.00;98875.16;4981439;57;1145007;-71
2024/01/18 15:47:44;;;;;;;97.70;43.43;;;;;;;-1.10;100.00;98897.67;4936826;56;1142871;-74
2024/01/18 15:52:52;;;;;;;88.07;36.70;;;;;;;-1.12;100.00;98910.35;4928753;57;1140731;-74
2024/01/18 15:57:57;;;;;;;86.47;35.13;;;;;;;-1.15;100.00;98915.24;4886807;56;1140718;-78
2024/01/18 16:03:03;;;;;;;83.23;34.57;;;;;;;-1.21;100.00;98916.03;4864463;57;1140707;-77
2024/01/18 16:08:09;;;;;;;58.73;28.50;;;;;;;-1.23;100.00;98921.79;4902677;57;1141066;-76
2024/01/18 16:13:14;;;;;;;65.77;31.33;;;;;;;-1.28;100.00;98936.75;4974363;57;1140963;-76
2024/01/18 16:18:20;;;;;;;64.63;30.57;;;;;;;-1.32;100.00;98939.13;4940821;57;1140878;-75
2024/01/18 16:23:28;;;;;;;63.20;26.73;;;;;;;-1.37;100.00;98944.56;4918107;57;1141143;-76
2024/01/18 16:28:33;;;;;;;53.08;24.20;;;;;;;-1.40;100.00;98951.23;4956292;57;1140869;-77
2024/01/18 16:33:39;;;;;;;70.00;30.60;;;;;;;-1.37;100.00;98960.12;4946516;57;1189661;-76
2024/01/18 16:38:45;;;;;;;67.83;30.07;;;;;;;-1.37;100.00;98968.35;4918746;57;1246590;-76
2024/01/18 16:43:52;;;;;;;54.60;26.63;;;;;;;-1.40;100.00;98980.21;4920681;56;1140868;-76
2024/01/18 16:49:02;;;;;;;49.57;20.30;;;;;;;-1.46;100.00;98996.46;4961086;57;1180351;-75
2024/01/18 16:54:07;;;;;;;65.03;28.23;;;;;;;-1.54;100.00;98999.94;4927812;57;1140465;-76
2024/01/18 16:59:13;;;;;;;62.00;25.83;;;;;;;-1.63;100.00;99019.84;4947321;57;1140738;-77
2024/01/18 17:04:18;;;;;;;58.70;23.07;;;;;;;-1.66;100.00;99031.66;4965893;57;1140786;-78
2024/01/18 17:09:24;;;;;;;47.57;22.33;;;;;;;-1.63;100.00;99036.69;4946205;57;1140677;-76
2024/01/18 17:14:30;;;;;;;56.53;24.63;;;;;;;-1.62;100.00;99056.97;4938677;57;1141349;-76
2024/01/18 17:19:35;;;;;;;69.40;25.13;;;;;;;-1.66;100.00;99064.05;4919273;56;1141678;-77
2024/01/18 17:24:42;;;;;;;61.97;26.10;;;;;;;-1.68;100.00;99071.55;4969151;56;1141002;-75
2024/01/18 17:29:48;;;;;;;63.47;27.40;;;;;;;-1.71;100.00;99084.66;4939731;57;1140724;-76
2024/01/18 17:34:59;;;;;;;69.73;28.43;;;;;;;-1.72;100.00;99089.00;4926535;57;1141659;-77
2024/01/18 17:40:01;;;;;;;55.63;23.87;;;;;;;-1.78;100.00;99091.89;4999392;56;1140655;-77
2024/01/18 17:45:07;;;;;;;42.93;19.70;;;;;;;-1.86;100.00;99103.95;4924359;57;1242075;-77
2024/01/18 17:50:13;;;;;;;406.77;141.83;;;;;;;-1.93;100.00;99106.45;4925524;57;1239359;-75
2024/01/18 17:55:19;;;;;;;1398.60;616.95;;;;;;;-2.04;100.00;99104.85;4937268;57;1253304;-76
2024/01/18 18:00:24;;;;;;;199.80;99.13;;;;;;;-2.11;100.00;99126.77;4917328;57;1250769;-78
2024/01/18 18:05:30;;;;;;;94.87;43.80;;;;;;;-2.12;100.00;99141.47;4926066;57;1249097;-78
2024/01/18 18:10:35;;;;;;;58.07;26.07;;;;;;;-2.09;100.00;99146.13;4921387;57;1255699;-78
2024/01/18 18:15:41;;;;;;;53.55;24.70;;;;;;;-2.04;100.00;99150.64;4957603;57;1140709;-78
2024/01/18 18:20:49;;;;;;;44.50;19.63;;;;;;;-2.07;100.00;99150.78;4927951;57;1254991;-76
2024/01/18 18:25:54;;;;;;;48.07;19.67;;;;;;;-2.10;100.00;99164.70;4939779;57;1258259;-76
2024/01/18 18:31:00;;;;;;;51.17;20.87;;;;;;;-2.16;100.00;99174.09;4860782;58;1140608;-76
2024/01/18 18:36:06;;;;;;;50.48;21.95;;;;;;;-2.25;100.00;99177.09;4855087;58;1140859;-76
2024/01/18 18:41:12;;;;;;;47.77;21.10;;;;;;;-2.28;100.00;99181.11;4882880;57;1141018;-75
2024/01/18 18:46:18;;;;;;;35.03;14.13;;;;;;;-2.33;100.00;99197.34;4987588;56;1140738;-75
2024/01/18 18:51:23;;;;;;;35.53;12.50;;;;;;;-2.43;100.00;99202.08;5059530;56;1140389;-79
2024/01/18 18:56:29;;;;;;;48.45;22.22;;;;;;;-2.55;100.00;99202.19;4947459;57;1140983;-75
2024/01/18 19:01:34;;;;;;;50.10;21.83;;;;;;;-2.55;100.00;99215.13;4924990;58;1246302;-76
2024/01/18 19:06:40;;;;;;;43.20;18.07;;;;;;;-2.59;100.00;99222.64;4932408;57;1140816;-78
2024/01/18 19:11:45;;;;;;;38.67;19.57;;;;;;;-2.54;100.00;99237.52;4927332;56;1226480;-77
2024/01/18 19:16:51;;;;;;;83.43;37.67;;;;;;;-2.51;100.00;99256.80;4945590;57;1140965;-76
2024/01/18 19:21:56;;;;;;;72.73;31.83;;;;;;;-2.46;100.00;99266.95;4957652;57;1140894;-77
2024/01/18 19:27:02;;;;;;;56.30;23.10;;;;;;;-2.40;100.00;99269.70;4944240;57;1140677;-78
2024/01/18 19:32:08;;;;;;;28.53;15.07;;;;;;;-2.37;100.00;99283.36;4926939;57;1141264;-75
2024/01/18 19:37:13;;;;;;;29.67;15.10;;;;;;;-2.43;100.00;99286.66;4974138;57;1140642;-75
2024/01/18 19:42:19;;;;;;;40.63;15.30;;;;;;;-2.47;100.00;99306.70;4956635;57;1140872;-75
2024/01/18 19:47:26;;;;;;;37.00;15.58;;;;;;;-2.51;100.00;99330.57;4930837;57;1140867;-75
2024/01/18 19:52:31;;;;;;;48.43;18.93;;;;;;;-2.58;100.00;99338.65;4923521;56;1140988;-76
2024/01/18 19:57:37;;;;;;;24.82;8.95;;;;;;;-2.64;100.00;99354.01;4961306;57;1140894;-77
2024/01/18 20:02:44;;;;;;;37.60;16.53;;;;;;;-2.73;100.00;99373.78;4949865;57;1138489;-75
2024/01/18 20:08:10;;;;;;;29.27;11.90;;;;;;;-2.86;100.00;99388.98;4942284;57;1140477;-75
2024/01/18 20:13:16;;;;;;;39.90;15.03;;;;;;;-2.90;100.00;99408.56;4956753;57;1140815;-76
2024/01/18 20:18:22;;;;;;;46.63;21.73;;;;;;;-2.96;100.00;99413.55;4920376;56;1140813;-77
2024/01/18 20:23:27;;;;;;;30.10;13.10;;;;;;;-2.95;100.00;99423.45;4929045;57;1140823;-77
2024/01/18 20:28:33;;;;;;;40.55;19.37;;;;;;;-2.90;100.00;99432.69;4945832;57;1140898;-77
2024/01/18 20:33:39;;;;;;;40.97;18.67;;;;;;;-2.91;100.00;99439.25;4935988;56;1140597;-76
2024/01/18 20:38:45;;;;;;;41.00;17.67;;;;;;;-2.98;100.00;99446.84;4924871;56;1141278;-75
2024/01/18 20:43:51;;;;;;;37.83;18.30;;;;;;;-2.98;100.00;99446.84;4917849;57;1140624;-76
2024/01/18 20:48:57;;;;;;;35.47;16.97;;;;;;;-2.99;100.00;99449.88;4935657;57;1140822;-76
2024/01/18 20:54:02;;;;;;;38.27;16.27;;;;;;;-2.97;100.00;99469.22;4914483;56;1141067;-76
2024/01/18 20:59:08;;;;;;;38.17;16.40;;;;;;;-2.97;100.00;99469.22;4895310;57;1140961;-76
2024/01/18 21:04:13;;;;;;;39.80;17.70;;;;;;;-2.93;100.00;99471.64;4941372;57;1140957;-80
2024/01/18 21:09:23;;;;;;;36.00;16.20;;;;;;;-2.89;100.00;99483.98;4886343;57;1140966;-78
2024/01/18 21:14:26;;;;;;;38.70;16.87;;;;;;;-2.89;100.00;99486.11;4918875;56;1140953;-82
2024/01/18 21:19:32;;;;;;;35.30;16.87;;;;;;;-2.85;100.00;99488.14;4918073;56;1141008;-78
2024/01/18 21:24:38;;;;;;;35.93;15.43;;;;;;;-2.82;100.00;99483.30;4916933;57;1146990;-77
2024/01/18 21:29:43;;;;;;;28.67;13.28;;;;;;;-2.79;100.00;99499.55;4925618;57;1140816;-79
2024/01/18 21:34:50;;;;;;;41.07;17.60;;;;;;;-2.73;100.00;99507.05;4957362;57;1141375;-77
2024/01/18 21:39:56;;;;;;;39.67;17.07;;;;;;;-2.68;100.00;99518.07;4963955;57;1140930;-77
2024/01/18 21:45:01;;;;;;;50.80;19.60;;;;;;;-2.66;100.00;99526.63;4896341;56;1140775;-76
2024/01/18 21:50:07;;;;;;;49.53;19.77;;;;;;;-2.62;100.00;99536.41;4728704;60;1140658;-78
2024/01/18 21:55:13;;;;;;;43.13;17.63;;;;;;;-2.53;100.00;99556.73;4884803;57;1140551;-77
2024/01/18 22:00:19;;;;;;;34.87;14.23;;;;;;;-2.47;100.00;99566.86;4893594;57;1141912;-77
2024/01/18 22:05:24;;;;;;;36.13;14.90;;;;;;;-2.45;100.00;99573.27;4952504;57;1140963;-78
2024/01/18 22:10:30;;;;;;;25.70;11.27;;;;;;;-2.43;100.00;99580.05;4941315;57;1141001;-78
2024/01/18 22:15:35;;;;;;;28.67;10.37;;;;;;;-2.43;100.00;99583.94;4886507;58;1141007;-79
2024/01/18 22:20:41;;;;;;;28.27;12.55;;;;;;;-2.44;100.00;99594.38;4876647;58;1140789;-78
2024/01/18 22:25:47;;;;;;;22.85;8.38;;;;;;;-2.40;100.00;99603.23;4843905;57;1140783;-77
2024/01/18 22:30:52;;;;;;;34.03;12.80;;;;;;;-2.38;100.00;99610.95;4953501;57;1138888;-78
2024/01/18 22:36:00;;;;;;;20.87;10.47;;;;;;;-2.39;100.00;99619.62;4937043;56;1140658;-78
2024/01/18 22:41:05;;;;;;;27.23;10.37;;;;;;;-2.37;100.00;99631.61;4939570;57;1141487;-80